sensor_id;sensor_type;location;lat;lon;timestamp;temperature;humidity
1958;DHT22;979;51.076;13.748;2023-08-12T00:02:18;20.80;74.50
1958;DHT22;979;51.076;13.748;2023-08-12T00:04:46;20.80;74.60
1958;DHT22;979;51.076;13.748;2023-08-12T00:07:15;20.70;74.70
1958;DHT22;979;51.076;13.748;2023-08-12T00:09:43;20.70;74.70
1958;DHT22;979;51.076;13.748;2023-08-12T00:12:11;20.70;75.70
1958;DHT22;979;51.076;13.748;2023-08-12T00:14:39;20.60;75.00
1958;DHT22;979;51.076;13.748;2023-08-12T00:17:09;20.60;75.00
1958;DHT22;979;51.076;13.748;2023-08-12T00:19:38;20.60;75.20
1958;DHT22;979;51.076;13.748;2023-08-12T00:22:06;20.50;75.20
1958;DHT22;979;51.076;13.748;2023-08-12T00:24:35;20.60;75.40
1958;DHT22;979;51.076;13.748;2023-08-12T00:27:03;20.50;75.40
1958;DHT22;979;51.076;13.748;2023-08-12T00:29:31;20.50;75.50
1958;DHT22;979;51.076;13.748;2023-08-12T00:32:00;20.40;75.30
1958;DHT22;979;51.076;13.748;2023-08-12T00:34:29;20.50;75.50
1958;DHT22;979;51.076;13.748;2023-08-12T00:36:57;20.40;75.60
1958;DHT22;979;51.076;13.748;2023-08-12T00:39:26;20.40;75.70
1958;DHT22;979;51.076;13.748;2023-08-12T00:41:54;20.40;75.80
1958;DHT22;979;51.076;13.748;2023-08-12T00:44:23;20.30;75.90
1958;DHT22;979;51.076;13.748;2023-08-12T00:46:53;20.30;75.90
1958;DHT22;979;51.076;13.748;2023-08-12T00:49:24;20.20;76.00
1958;DHT22;979;51.076;13.748;2023-08-12T00:51:55;20.20;76.00
1958;DHT22;979;51.076;13.748;2023-08-12T00:54:26;20.20;76.30
1958;DHT22;979;51.076;13.748;2023-08-12T00:56:57;20.20;76.30
1958;DHT22;979;51.076;13.748;2023-08-12T00:59:29;20.10;76.40
1958;DHT22;979;51.076;13.748;2023-08-12T01:01:57;20.10;76.60
1958;DHT22;979;51.076;13.748;2023-08-12T01:04:25;20.10;76.80
1958;DHT22;979;51.076;13.748;2023-08-12T01:06:55;20.00;76.80
1958;DHT22;979;51.076;13.748;2023-08-12T01:09:23;20.00;76.90
1958;DHT22;979;51.076;13.748;2023-08-12T01:11:57;19.90;76.80
1958;DHT22;979;51.076;13.748;2023-08-12T01:14:35;19.90;76.90
1958;DHT22;979;51.076;13.748;2023-08-12T01:17:07;19.90;76.90
1958;DHT22;979;51.076;13.748;2023-08-12T01:19:38;19.90;76.90
1958;DHT22;979;51.076;13.748;2023-08-12T01:22:09;19.80;76.90
1958;DHT22;979;51.076;13.748;2023-08-12T01:24:43;19.80;77.00
1958;DHT22;979;51.076;13.748;2023-08-12T01:27:12;19.80;77.00
1958;DHT22;979;51.076;13.748;2023-08-12T01:29:43;19.90;77.10
1958;DHT22;979;51.076;13.748;2023-08-12T01:32:17;19.80;77.00
1958;DHT22;979;51.076;13.748;2023-08-12T01:34:53;19.80;77.20
1958;DHT22;979;51.076;13.748;2023-08-12T01:37:24;19.80;77.30
1958;DHT22;979;51.076;13.748;2023-08-12T01:39:55;19.80;77.30
1958;DHT22;979;51.076;13.748;2023-08-12T01:42:28;19.80;77.40
1958;DHT22;979;51.076;13.748;2023-08-12T01:44:57;19.80;77.60
1958;DHT22;979;51.076;13.748;2023-08-12T01:47:26;19.80;77.50
1958;DHT22;979;51.076;13.748;2023-08-12T01:49:55;19.70;77.40
1958;DHT22;979;51.076;13.748;2023-08-12T01:52:24;19.80;77.50
1958;DHT22;979;51.076;13.748;2023-08-12T01:54:55;19.80;77.50
1958;DHT22;979;51.076;13.748;2023-08-12T01:57:25;19.80;77.60
1958;DHT22;979;51.076;13.748;2023-08-12T01:59:54;19.80;77.60
1958;DHT22;979;51.076;13.748;2023-08-12T02:02:22;19.80;77.60
1958;DHT22;979;51.076;13.748;2023-08-12T02:04:50;19.80;77.60
1958;DHT22;979;51.076;13.748;2023-08-12T02:07:19;19.80;77.70
1958;DHT22;979;51.076;13.748;2023-08-12T02:09:47;19.70;77.50
1958;DHT22;979;51.076;13.748;2023-08-12T02:12:17;19.70;77.50
1958;DHT22;979;51.076;13.748;2023-08-12T02:14:45;19.70;77.60
1958;DHT22;979;51.076;13.748;2023-08-12T02:17:14;19.60;77.60
1958;DHT22;979;51.076;13.748;2023-08-12T02:19:42;19.60;77.60
1958;DHT22;979;51.076;13.748;2023-08-12T02:22:10;19.60;77.70
1958;DHT22;979;51.076;13.748;2023-08-12T02:24:40;19.50;77.80
1958;DHT22;979;51.076;13.748;2023-08-12T02:27:08;19.50;77.90
1958;DHT22;979;51.076;13.748;2023-08-12T02:29:41;19.50;78.00
1958;DHT22;979;51.076;13.748;2023-08-12T02:32:11;19.40;78.00
1958;DHT22;979;51.076;13.748;2023-08-12T02:34:42;19.40;78.10
1958;DHT22;979;51.076;13.748;2023-08-12T02:37:10;19.40;78.10
1958;DHT22;979;51.076;13.748;2023-08-12T02:39:40;19.40;78.30
1958;DHT22;979;51.076;13.748;2023-08-12T02:42:08;19.40;78.40
1958;DHT22;979;51.076;13.748;2023-08-12T02:44:36;19.40;78.50
1958;DHT22;979;51.076;13.748;2023-08-12T02:47:06;19.30;78.50
1958;DHT22;979;51.076;13.748;2023-08-12T02:49:34;19.40;78.60
1958;DHT22;979;51.076;13.748;2023-08-12T02:52:05;19.30;78.50
1958;DHT22;979;51.076;13.748;2023-08-12T02:54:33;19.30;78.60
1958;DHT22;979;51.076;13.748;2023-08-12T02:57:02;19.30;78.90
1958;DHT22;979;51.076;13.748;2023-08-12T02:59:30;19.30;79.00
1958;DHT22;979;51.076;13.748;2023-08-12T03:01:58;19.20;79.00
1958;DHT22;979;51.076;13.748;2023-08-12T03:04:28;19.20;79.00
1958;DHT22;979;51.076;13.748;2023-08-12T03:06:57;19.20;79.20
1958;DHT22;979;51.076;13.748;2023-08-12T03:09:25;19.20;79.30
1958;DHT22;979;51.076;13.748;2023-08-12T03:11:53;19.20;79.30
1958;DHT22;979;51.076;13.748;2023-08-12T03:14:23;19.20;79.20
1958;DHT22;979;51.076;13.748;2023-08-12T03:16:51;19.10;79.30
1958;DHT22;979;51.076;13.748;2023-08-12T03:19:21;19.10;79.30
1958;DHT22;979;51.076;13.748;2023-08-12T03:21:52;19.10;79.40
1958;DHT22;979;51.076;13.748;2023-08-12T03:24:23;19.00;79.40
1958;DHT22;979;51.076;13.748;2023-08-12T03:26:52;19.00;79.60
1958;DHT22;979;51.076;13.748;2023-08-12T03:29:21;19.00;79.70
1958;DHT22;979;51.076;13.748;2023-08-12T03:31:49;19.00;80.60
1958;DHT22;979;51.076;13.748;2023-08-12T03:34:17;18.90;79.80
1958;DHT22;979;51.076;13.748;2023-08-12T03:36:46;19.00;79.90
1958;DHT22;979;51.076;13.748;2023-08-12T03:39:18;19.00;80.00
1958;DHT22;979;51.076;13.748;2023-08-12T03:41:49;19.00;80.10
1958;DHT22;979;51.076;13.748;2023-08-12T03:44:18;19.00;80.00
1958;DHT22;979;51.076;13.748;2023-08-12T03:46:47;18.90;79.90
1958;DHT22;979;51.076;13.748;2023-08-12T03:49:16;19.00;80.00
1958;DHT22;979;51.076;13.748;2023-08-12T03:51:48;19.00;80.00
1958;DHT22;979;51.076;13.748;2023-08-12T03:54:20;19.00;80.00
1958;DHT22;979;51.076;13.748;2023-08-12T03:56:49;19.00;80.20
1958;DHT22;979;51.076;13.748;2023-08-12T03:59:17;19.00;80.30
1958;DHT22;979;51.076;13.748;2023-08-12T04:01:48;19.00;80.30
1958;DHT22;979;51.076;13.748;2023-08-12T04:04:16;19.00;80.20
1958;DHT22;979;51.076;13.748;2023-08-12T04:06:44;19.00;80.10
1958;DHT22;979;51.076;13.748;2023-08-12T04:09:15;19.00;80.30
1958;DHT22;979;51.076;13.748;2023-08-12T04:11:45;19.00;80.30
1958;DHT22;979;51.076;13.748;2023-08-12T04:14:14;19.10;80.40
1958;DHT22;979;51.076;13.748;2023-08-12T04:16:42;19.10;80.50
1958;DHT22;979;51.076;13.748;2023-08-12T04:19:11;19.10;80.50
1958;DHT22;979;51.076;13.748;2023-08-12T04:21:40;19.10;80.60
1958;DHT22;979;51.076;13.748;2023-08-12T04:24:12;19.10;80.50
1958;DHT22;979;51.076;13.748;2023-08-12T04:26:41;19.10;81.30
1958;DHT22;979;51.076;13.748;2023-08-12T04:29:11;19.20;80.60
1958;DHT22;979;51.076;13.748;2023-08-12T04:31:41;19.20;80.60
1958;DHT22;979;51.076;13.748;2023-08-12T04:34:12;19.20;80.40
1958;DHT22;979;51.076;13.748;2023-08-12T04:36:40;19.20;80.50
1958;DHT22;979;51.076;13.748;2023-08-12T04:39:10;19.30;80.50
1958;DHT22;979;51.076;13.748;2023-08-12T04:41:39;19.30;80.50
1958;DHT22;979;51.076;13.748;2023-08-12T04:44:08;19.30;80.50
1958;DHT22;979;51.076;13.748;2023-08-12T04:46:38;19.40;80.60
1958;DHT22;979;51.076;13.748;2023-08-12T04:49:08;19.50;80.70
1958;DHT22;979;51.076;13.748;2023-08-12T04:51:37;19.50;80.80
1958;DHT22;979;51.076;13.748;2023-08-12T04:54:05;19.80;81.00
1958;DHT22;979;51.076;13.748;2023-08-12T04:56:36;19.60;80.70
1958;DHT22;979;51.076;13.748;2023-08-12T04:59:04;19.70;80.90
1958;DHT22;979;51.076;13.748;2023-08-12T05:01:37;19.70;80.80
1958;DHT22;979;51.076;13.748;2023-08-12T05:04:25;19.80;80.70
1958;DHT22;979;51.076;13.748;2023-08-12T05:06:55;19.90;80.70
1958;DHT22;979;51.076;13.748;2023-08-12T05:09:24;19.90;80.60
1958;DHT22;979;51.076;13.748;2023-08-12T05:11:53;20.00;80.60
1958;DHT22;979;51.076;13.748;2023-08-12T05:14:22;20.00;80.40
1958;DHT22;979;51.076;13.748;2023-08-12T05:16:51;20.10;80.30
1958;DHT22;979;51.076;13.748;2023-08-12T05:19:20;20.10;80.20
1958;DHT22;979;51.076;13.748;2023-08-12T05:21:48;20.20;80.00
1958;DHT22;979;51.076;13.748;2023-08-12T05:24:16;20.30;80.00
1958;DHT22;979;51.076;13.748;2023-08-12T05:26:47;20.30;79.80
1958;DHT22;979;51.076;13.748;2023-08-12T05:29:15;20.40;79.90
1958;DHT22;979;51.076;13.748;2023-08-12T05:31:43;20.50;79.80
1958;DHT22;979;51.076;13.748;2023-08-12T05:34:13;20.60;79.60
1958;DHT22;979;51.076;13.748;2023-08-12T05:36:41;20.70;79.40
1958;DHT22;979;51.076;13.748;2023-08-12T05:39:09;20.80;79.20
1958;DHT22;979;51.076;13.748;2023-08-12T05:41:38;20.90;79.00
1958;DHT22;979;51.076;13.748;2023-08-12T05:44:06;21.00;78.80
1958;DHT22;979;51.076;13.748;2023-08-12T05:46:35;21.10;78.60
1958;DHT22;979;51.076;13.748;2023-08-12T05:49:03;21.10;78.40
1958;DHT22;979;51.076;13.748;2023-08-12T05:51:35;21.30;78.30
1958;DHT22;979;51.076;13.748;2023-08-12T05:54:05;21.40;78.20
1958;DHT22;979;51.076;13.748;2023-08-12T05:56:33;21.50;77.90
1958;DHT22;979;51.076;13.748;2023-08-12T05:59:01;21.60;77.60
1958;DHT22;979;51.076;13.748;2023-08-12T06:01:30;21.80;77.30
1958;DHT22;979;51.076;13.748;2023-08-12T06:03:58;22.00;77.30
1958;DHT22;979;51.076;13.748;2023-08-12T06:06:26;22.00;76.90
1958;DHT22;979;51.076;13.748;2023-08-12T06:08:56;22.20;76.80
1958;DHT22;979;51.076;13.748;2023-08-12T06:11:24;22.30;76.60
1958;DHT22;979;51.076;13.748;2023-08-12T06:13:54;22.40;76.40
1958;DHT22;979;51.076;13.748;2023-08-12T06:16:22;22.40;75.80
1958;DHT22;979;51.076;13.748;2023-08-12T06:18:51;22.50;76.60
1958;DHT22;979;51.076;13.748;2023-08-12T06:21:21;22.60;76.00
1958;DHT22;979;51.076;13.748;2023-08-12T06:23:49;22.80;75.70
1958;DHT22;979;51.076;13.748;2023-08-12T06:26:22;22.90;75.30
1958;DHT22;979;51.076;13.748;2023-08-12T06:28:51;23.00;75.30
1958;DHT22;979;51.076;13.748;2023-08-12T06:31:21;23.10;74.70
1958;DHT22;979;51.076;13.748;2023-08-12T06:33:49;23.20;74.30
1958;DHT22;979;51.076;13.748;2023-08-12T06:36:17;23.40;74.10
1958;DHT22;979;51.076;13.748;2023-08-12T06:38:48;23.70;73.80
1958;DHT22;979;51.076;13.748;2023-08-12T06:41:16;23.60;73.30
1958;DHT22;979;51.076;13.748;2023-08-12T06:43:46;23.70;73.20
1958;DHT22;979;51.076;13.748;2023-08-12T06:46:16;23.80;73.00
1958;DHT22;979;51.076;13.748;2023-08-12T06:48:45;23.90;72.70
1958;DHT22;979;51.076;13.748;2023-08-12T06:51:15;24.00;72.40
1958;DHT22;979;51.076;13.748;2023-08-12T06:53:43;24.00;72.00
1958;DHT22;979;51.076;13.748;2023-08-12T06:56:14;24.10;71.80
1958;DHT22;979;51.076;13.748;2023-08-12T06:58:42;24.10;71.60
1958;DHT22;979;51.076;13.748;2023-08-12T07:01:11;24.20;71.70
1958;DHT22;979;51.076;13.748;2023-08-12T07:03:41;24.30;71.50
1958;DHT22;979;51.076;13.748;2023-08-12T07:06:12;24.30;71.10
1958;DHT22;979;51.076;13.748;2023-08-12T07:08:42;24.50;71.20
1958;DHT22;979;51.076;13.748;2023-08-12T07:11:10;24.60;71.00
1958;DHT22;979;51.076;13.748;2023-08-12T07:13:38;24.70;70.90
1958;DHT22;979;51.076;13.748;2023-08-12T07:16:07;24.80;70.50
1958;DHT22;979;51.076;13.748;2023-08-12T07:18:36;24.80;70.30
1958;DHT22;979;51.076;13.748;2023-08-12T07:21:05;24.80;70.00
1958;DHT22;979;51.076;13.748;2023-08-12T07:23:33;24.90;70.00
1958;DHT22;979;51.076;13.748;2023-08-12T07:26:01;24.90;69.90
1958;DHT22;979;51.076;13.748;2023-08-12T07:28:29;24.90;69.80
1958;DHT22;979;51.076;13.748;2023-08-12T07:31:00;25.00;70.00
1958;DHT22;979;51.076;13.748;2023-08-12T07:33:29;25.10;69.80
1958;DHT22;979;51.076;13.748;2023-08-12T07:35:58;25.20;69.90
1958;DHT22;979;51.076;13.748;2023-08-12T07:38:28;25.30;69.80
1958;DHT22;979;51.076;13.748;2023-08-12T07:40:56;25.50;69.30
1958;DHT22;979;51.076;13.748;2023-08-12T07:43:27;25.60;69.10
1958;DHT22;979;51.076;13.748;2023-08-12T07:45:57;25.70;69.00
1958;DHT22;979;51.076;13.748;2023-08-12T07:48:36;26.00;69.10
1958;DHT22;979;51.076;13.748;2023-08-12T07:51:06;26.20;68.60
1958;DHT22;979;51.076;13.748;2023-08-12T07:53:34;26.40;68.40
1958;DHT22;979;51.076;13.748;2023-08-12T07:56:03;26.60;68.00
1958;DHT22;979;51.076;13.748;2023-08-12T07:58:33;26.80;67.80
1958;DHT22;979;51.076;13.748;2023-08-12T08:01:02;26.90;67.30
1958;DHT22;979;51.076;13.748;2023-08-12T08:03:31;27.20;67.10
1958;DHT22;979;51.076;13.748;2023-08-12T08:06:02;27.20;66.60
1958;DHT22;979;51.076;13.748;2023-08-12T08:08:34;27.40;66.60
1958;DHT22;979;51.076;13.748;2023-08-12T08:11:02;27.50;66.50
1958;DHT22;979;51.076;13.748;2023-08-12T08:13:32;27.60;66.30
1958;DHT22;979;51.076;13.748;2023-08-12T08:16:01;27.80;66.10
1958;DHT22;979;51.076;13.748;2023-08-12T08:18:29;27.90;65.70
1958;DHT22;979;51.076;13.748;2023-08-12T08:20:57;28.00;65.60
1958;DHT22;979;51.076;13.748;2023-08-12T08:23:35;28.10;65.20
1958;DHT22;979;51.076;13.748;2023-08-12T08:26:03;28.20;64.90
1958;DHT22;979;51.076;13.748;2023-08-12T08:28:34;28.30;64.70
1958;DHT22;979;51.076;13.748;2023-08-12T08:31:02;28.30;64.40
1958;DHT22;979;51.076;13.748;2023-08-12T08:33:31;28.40;64.30
1958;DHT22;979;51.076;13.748;2023-08-12T08:35:59;28.50;64.30
1958;DHT22;979;51.076;13.748;2023-08-12T08:38:27;28.60;64.00
1958;DHT22;979;51.076;13.748;2023-08-12T08:40:58;28.70;63.80
1958;DHT22;979;51.076;13.748;2023-08-12T08:43:26;28.70;63.60
1958;DHT22;979;51.076;13.748;2023-08-12T08:45:58;28.80;63.50
1958;DHT22;979;51.076;13.748;2023-08-12T08:48:28;28.90;63.60
1958;DHT22;979;51.076;13.748;2023-08-12T08:50:57;29.00;63.60
1958;DHT22;979;51.076;13.748;2023-08-12T08:53:25;29.20;63.30
1958;DHT22;979;51.076;13.748;2023-08-12T08:55:58;29.30;63.40
1958;DHT22;979;51.076;13.748;2023-08-12T08:58:28;29.40;63.10
1958;DHT22;979;51.076;13.748;2023-08-12T09:00:56;29.50;63.20
1958;DHT22;979;51.076;13.748;2023-08-12T09:03:25;29.60;62.30
1958;DHT22;979;51.076;13.748;2023-08-12T09:05:55;29.70;61.90
1958;DHT22;979;51.076;13.748;2023-08-12T09:08:24;29.90;61.70
1958;DHT22;979;51.076;13.748;2023-08-12T09:10:54;29.90;61.50
1958;DHT22;979;51.076;13.748;2023-08-12T09:13:24;30.00;61.00
1958;DHT22;979;51.076;13.748;2023-08-12T09:15:55;30.10;61.20
1958;DHT22;979;51.076;13.748;2023-08-12T09:18:23;30.20;60.90
1958;DHT22;979;51.076;13.748;2023-08-12T09:20:52;30.40;60.80
1958;DHT22;979;51.076;13.748;2023-08-12T09:23:20;30.60;60.60
1958;DHT22;979;51.076;13.748;2023-08-12T09:25:49;30.80;60.70
1958;DHT22;979;51.076;13.748;2023-08-12T09:28:19;31.00;60.20
1958;DHT22;979;51.076;13.748;2023-08-12T09:30:51;31.20;59.70
1958;DHT22;979;51.076;13.748;2023-08-12T09:33:24;31.40;59.40
1958;DHT22;979;51.076;13.748;2023-08-12T09:35:55;31.60;59.00
1958;DHT22;979;51.076;13.748;2023-08-12T09:38:26;31.80;58.90
1958;DHT22;979;51.076;13.748;2023-08-12T09:40:54;32.10;58.30
1958;DHT22;979;51.076;13.748;2023-08-12T09:43:26;32.40;57.70
1958;DHT22;979;51.076;13.748;2023-08-12T09:45:57;32.70;57.30
1958;DHT22;979;51.076;13.748;2023-08-12T09:48:26;33.10;57.00
1958;DHT22;979;51.076;13.748;2023-08-12T09:50:54;33.40;56.90
1958;DHT22;979;51.076;13.748;2023-08-12T09:53:26;33.60;55.50
1958;DHT22;979;51.076;13.748;2023-08-12T09:56:02;33.80;54.80
1958;DHT22;979;51.076;13.748;2023-08-12T09:58:35;34.00;54.40
1958;DHT22;979;51.076;13.748;2023-08-12T10:01:09;34.10;54.30
1958;DHT22;979;51.076;13.748;2023-08-12T10:03:45;34.30;54.10
1958;DHT22;979;51.076;13.748;2023-08-12T10:06:17;34.40;53.70
1958;DHT22;979;51.076;13.748;2023-08-12T10:08:46;34.40;53.30
1958;DHT22;979;51.076;13.748;2023-08-12T10:11:15;34.40;53.40
1958;DHT22;979;51.076;13.748;2023-08-12T10:13:47;34.40;53.40
1958;DHT22;979;51.076;13.748;2023-08-12T10:16:17;34.30;52.80
1958;DHT22;979;51.076;13.748;2023-08-12T10:18:49;34.20;53.00
1958;DHT22;979;51.076;13.748;2023-08-12T10:21:18;34.10;52.80
1958;DHT22;979;51.076;13.748;2023-08-12T10:23:47;34.10;52.30
1958;DHT22;979;51.076;13.748;2023-08-12T10:26:15;34.10;51.80
1958;DHT22;979;51.076;13.748;2023-08-12T10:28:48;34.10;51.20
1958;DHT22;979;51.076;13.748;2023-08-12T10:31:20;34.10;51.00
1958;DHT22;979;51.076;13.748;2023-08-12T10:33:49;34.10;50.90
1958;DHT22;979;51.076;13.748;2023-08-12T10:36:17;34.10;50.50
1958;DHT22;979;51.076;13.748;2023-08-12T10:38:46;34.10;50.10
1958;DHT22;979;51.076;13.748;2023-08-12T10:41:16;34.10;49.90
1958;DHT22;979;51.076;13.748;2023-08-12T10:43:55;34.10;49.60
1958;DHT22;979;51.076;13.748;2023-08-12T10:46:31;34.00;49.40
1958;DHT22;979;51.076;13.748;2023-08-12T10:49:03;34.00;49.40
1958;DHT22;979;51.076;13.748;2023-08-12T10:51:42;33.90;49.00
1958;DHT22;979;51.076;13.748;2023-08-12T10:54:22;33.90;49.30
1958;DHT22;979;51.076;13.748;2023-08-12T10:57:07;33.90;49.30
1958;DHT22;979;51.076;13.748;2023-08-12T10:59:50;34.00;49.40
1958;DHT22;979;51.076;13.748;2023-08-12T11:02:21;34.10;49.10
1958;DHT22;979;51.076;13.748;2023-08-12T11:04:52;34.20;49.00
1958;DHT22;979;51.076;13.748;2023-08-12T11:07:22;34.20;49.10
1958;DHT22;979;51.076;13.748;2023-08-12T11:09:59;34.30;49.30
1958;DHT22;979;51.076;13.748;2023-08-12T11:12:30;34.40;49.50
1958;DHT22;979;51.076;13.748;2023-08-12T11:14:59;34.50;48.80
1958;DHT22;979;51.076;13.748;2023-08-12T11:17:36;34.90;48.80
1958;DHT22;979;51.076;13.748;2023-08-12T11:20:07;34.70;48.80
1958;DHT22;979;51.076;13.748;2023-08-12T11:22:37;35.00;49.50
1958;DHT22;979;51.076;13.748;2023-08-12T11:25:10;35.10;48.60
1958;DHT22;979;51.076;13.748;2023-08-12T11:27:40;35.20;48.60
1958;DHT22;979;51.076;13.748;2023-08-12T11:30:11;35.30;48.70
1958;DHT22;979;51.076;13.748;2023-08-12T11:32:45;35.30;48.80
1958;DHT22;979;51.076;13.748;2023-08-12T11:35:17;35.40;48.70
1958;DHT22;979;51.076;13.748;2023-08-12T11:37:49;35.50;48.60
1958;DHT22;979;51.076;13.748;2023-08-12T11:40:20;35.60;48.70
1958;DHT22;979;51.076;13.748;2023-08-12T11:42:50;35.50;48.00
1958;DHT22;979;51.076;13.748;2023-08-12T11:45:20;35.30;47.60
1958;DHT22;979;51.076;13.748;2023-08-12T11:47:51;35.20;47.70
1958;DHT22;979;51.076;13.748;2023-08-12T11:50:23;35.00;47.50
1958;DHT22;979;51.076;13.748;2023-08-12T11:52:52;34.80;47.60
1958;DHT22;979;51.076;13.748;2023-08-12T11:55:21;34.70;48.10
1958;DHT22;979;51.076;13.748;2023-08-12T11:57:52;34.70;47.70
1958;DHT22;979;51.076;13.748;2023-08-12T12:00:20;34.70;47.90
1958;DHT22;979;51.076;13.748;2023-08-12T12:02:53;35.00;48.20
1958;DHT22;979;51.076;13.748;2023-08-12T12:05:22;35.30;48.00
1958;DHT22;979;51.076;13.748;2023-08-12T12:07:52;35.80;47.80
1958;DHT22;979;51.076;13.748;2023-08-12T12:10:27;36.50;47.70
1958;DHT22;979;51.076;13.748;2023-08-12T12:13:03;37.80;47.40
1958;DHT22;979;51.076;13.748;2023-08-12T12:15:37;39.30;46.70
1958;DHT22;979;51.076;13.748;2023-08-12T12:18:11;40.70;45.40
1958;DHT22;979;51.076;13.748;2023-08-12T12:20:53;42.10;44.50
1958;DHT22;979;51.076;13.748;2023-08-12T12:23:26;43.40;44.40
1958;DHT22;979;51.076;13.748;2023-08-12T12:25:58;43.90;43.20
1958;DHT22;979;51.076;13.748;2023-08-12T12:28:28;44.20;42.80
1958;DHT22;979;51.076;13.748;2023-08-12T12:30:57;45.00;42.60
1958;DHT22;979;51.076;13.748;2023-08-12T12:33:26;45.80;42.20
1958;DHT22;979;51.076;13.748;2023-08-12T12:35:57;46.00;41.10
1958;DHT22;979;51.076;13.748;2023-08-12T12:38:29;45.40;41.10
1958;DHT22;979;51.076;13.748;2023-08-12T12:40:57;44.90;41.10
1958;DHT22;979;51.076;13.748;2023-08-12T12:43:25;44.90;41.50
1958;DHT22;979;51.076;13.748;2023-08-12T12:45:54;44.90;41.30
1958;DHT22;979;51.076;13.748;2023-08-12T12:48:26;44.50;41.20
1958;DHT22;979;51.076;13.748;2023-08-12T12:50:56;44.30;41.40
1958;DHT22;979;51.076;13.748;2023-08-12T12:53:27;44.30;41.40
1958;DHT22;979;51.076;13.748;2023-08-12T12:55:57;44.50;41.40
1958;DHT22;979;51.076;13.748;2023-08-12T12:58:33;44.50;41.40
1958;DHT22;979;51.076;13.748;2023-08-12T13:01:05;44.70;41.40
1958;DHT22;979;51.076;13.748;2023-08-12T13:03:35;44.50;41.40
1958;DHT22;979;51.076;13.748;2023-08-12T13:06:05;44.00;41.50
1958;DHT22;979;51.076;13.748;2023-08-12T13:08:36;43.20;41.20
1958;DHT22;979;51.076;13.748;2023-08-12T13:11:04;42.20;41.90
1958;DHT22;979;51.076;13.748;2023-08-12T13:13:34;41.50;42.50
1958;DHT22;979;51.076;13.748;2023-08-12T13:16:03;41.00;42.90
1958;DHT22;979;51.076;13.748;2023-08-12T13:18:35;40.60;43.20
1958;DHT22;979;51.076;13.748;2023-08-12T13:21:03;40.00;43.60
1958;DHT22;979;51.076;13.748;2023-08-12T13:23:32;39.40;43.80
1958;DHT22;979;51.076;13.748;2023-08-12T13:26:00;38.90;44.40
1958;DHT22;979;51.076;13.748;2023-08-12T13:28:28;38.60;44.90
1958;DHT22;979;51.076;13.748;2023-08-12T13:30:56;38.30;45.40
1958;DHT22;979;51.076;13.748;2023-08-12T13:33:25;38.20;45.70
1958;DHT22;979;51.076;13.748;2023-08-12T13:35:54;38.10;45.80
1958;DHT22;979;51.076;13.748;2023-08-12T13:38:26;38.10;45.80
1958;DHT22;979;51.076;13.748;2023-08-12T13:40:55;38.20;45.80
1958;DHT22;979;51.076;13.748;2023-08-12T13:43:23;38.50;45.90
1958;DHT22;979;51.076;13.748;2023-08-12T13:45:53;38.80;45.60
1958;DHT22;979;51.076;13.748;2023-08-12T13:48:24;38.90;45.60
1958;DHT22;979;51.076;13.748;2023-08-12T13:50:56;39.00;45.70
1958;DHT22;979;51.076;13.748;2023-08-12T13:53:27;39.10;46.10
1958;DHT22;979;51.076;13.748;2023-08-12T13:55:56;39.20;45.80
1958;DHT22;979;51.076;13.748;2023-08-12T13:58:24;39.20;45.80
1958;DHT22;979;51.076;13.748;2023-08-12T14:00:52;39.00;46.00
1958;DHT22;979;51.076;13.748;2023-08-12T14:03:21;38.90;46.60
1958;DHT22;979;51.076;13.748;2023-08-12T14:05:49;39.20;47.00
1958;DHT22;979;51.076;13.748;2023-08-12T14:08:18;39.50;46.90
1958;DHT22;979;51.076;13.748;2023-08-12T14:10:49;39.70;46.70
1958;DHT22;979;51.076;13.748;2023-08-12T14:13:18;39.80;46.30
1958;DHT22;979;51.076;13.748;2023-08-12T14:15:46;39.80;46.30
1958;DHT22;979;51.076;13.748;2023-08-12T14:18:14;39.80;46.20
1958;DHT22;979;51.076;13.748;2023-08-12T14:20:43;39.90;46.50
1958;DHT22;979;51.076;13.748;2023-08-12T14:23:11;40.10;46.30
1958;DHT22;979;51.076;13.748;2023-08-12T14:25:43;40.30;46.10
1958;DHT22;979;51.076;13.748;2023-08-12T14:28:11;40.20;46.00
1958;DHT22;979;51.076;13.748;2023-08-12T14:30:40;39.90;46.20
1958;DHT22;979;51.076;13.748;2023-08-12T14:33:11;39.30;46.40
1958;DHT22;979;51.076;13.748;2023-08-12T14:35:41;39.10;47.00
1958;DHT22;979;51.076;13.748;2023-08-12T14:38:12;39.10;47.40
1958;DHT22;979;51.076;13.748;2023-08-12T14:40:47;39.60;48.30
1958;DHT22;979;51.076;13.748;2023-08-12T14:43:15;40.20;47.00
1958;DHT22;979;51.076;13.748;2023-08-12T14:45:46;41.10;46.20
1958;DHT22;979;51.076;13.748;2023-08-12T14:48:14;41.40;45.10
1958;DHT22;979;51.076;13.748;2023-08-12T14:50:43;41.30;44.90
1958;DHT22;979;51.076;13.748;2023-08-12T14:53:14;41.50;45.10
1958;DHT22;979;51.076;13.748;2023-08-12T14:55:44;42.10;44.90
1958;DHT22;979;51.076;13.748;2023-08-12T14:58:14;42.70;44.00
1958;DHT22;979;51.076;13.748;2023-08-12T15:00:43;43.20;43.80
1958;DHT22;979;51.076;13.748;2023-08-12T15:03:11;43.70;43.50
1958;DHT22;979;51.076;13.748;2023-08-12T15:05:41;44.20;43.80
1958;DHT22;979;51.076;13.748;2023-08-12T15:08:10;44.80;42.80
1958;DHT22;979;51.076;13.748;2023-08-12T15:10:38;45.10;42.20
1958;DHT22;979;51.076;13.748;2023-08-12T15:13:08;45.10;41.50
1958;DHT22;979;51.076;13.748;2023-08-12T15:15:36;44.90;41.10
1958;DHT22;979;51.076;13.748;2023-08-12T15:18:05;44.10;41.20
1958;DHT22;979;51.076;13.748;2023-08-12T15:20:35;43.90;41.60
1958;DHT22;979;51.076;13.748;2023-08-12T15:23:04;43.70;41.40
1958;DHT22;979;51.076;13.748;2023-08-12T15:25:32;43.30;41.30
1958;DHT22;979;51.076;13.748;2023-08-12T15:28:03;42.70;41.50
1958;DHT22;979;51.076;13.748;2023-08-12T15:30:33;42.30;41.90
1958;DHT22;979;51.076;13.748;2023-08-12T15:33:01;42.30;42.70
1958;DHT22;979;51.076;13.748;2023-08-12T15:35:29;42.60;42.60
1958;DHT22;979;51.076;13.748;2023-08-12T15:37:58;42.90;42.60
1958;DHT22;979;51.076;13.748;2023-08-12T15:40:27;43.10;42.50
1958;DHT22;979;51.076;13.748;2023-08-12T15:42:56;42.90;42.00
1958;DHT22;979;51.076;13.748;2023-08-12T15:45:26;42.30;42.00
1958;DHT22;979;51.076;13.748;2023-08-12T15:47:56;41.60;42.50
1958;DHT22;979;51.076;13.748;2023-08-12T15:50:26;40.90;43.10
1958;DHT22;979;51.076;13.748;2023-08-12T15:52:57;40.20;43.50
1958;DHT22;979;51.076;13.748;2023-08-12T15:55:25;39.60;44.00
1958;DHT22;979;51.076;13.748;2023-08-12T15:57:53;39.00;44.50
1958;DHT22;979;51.076;13.748;2023-08-12T16:00:21;38.70;45.10
1958;DHT22;979;51.076;13.748;2023-08-12T16:02:50;38.60;45.50
1958;DHT22;979;51.076;13.748;2023-08-12T16:05:20;38.50;45.60
1958;DHT22;979;51.076;13.748;2023-08-12T16:07:48;38.20;45.60
1958;DHT22;979;51.076;13.748;2023-08-12T16:10:16;38.00;45.80
1958;DHT22;979;51.076;13.748;2023-08-12T16:12:44;37.60;46.00
1958;DHT22;979;51.076;13.748;2023-08-12T16:15:13;37.30;46.30
1958;DHT22;979;51.076;13.748;2023-08-12T16:17:41;36.90;46.60
1958;DHT22;979;51.076;13.748;2023-08-12T16:20:12;36.60;46.80